createdAt,value
2023-01-23T00:00:29.281Z,11.60
2023-01-23T00:04:59.360Z,10.80
2023-01-23T00:09:29.439Z,11.10
2023-01-23T00:17:39.603Z,12.20
2023-01-23T00:22:08.566Z,21.70
2023-01-23T00:26:30.690Z,20.00
2023-01-23T00:50:35.930Z,15.90
2023-01-23T00:55:05.442Z,20.80
2023-01-23T00:59:34.354Z,15.10
2023-01-23T01:03:45.256Z,17.00
2023-01-23T01:08:14.916Z,15.90
2023-01-23T01:29:14.571Z,11.20
2023-01-23T01:33:43.445Z,11.80
2023-01-23T01:38:11.288Z,12.00
2023-01-23T01:42:25.501Z,11.90
2023-01-23T02:04:00.893Z,12.00
2023-01-23T02:08:39.043Z,11.30
2023-01-23T02:13:08.484Z,10.80
2023-01-23T02:17:27.481Z,10.20
2023-01-23T02:21:56.930Z,10.70
2023-01-23T02:40:09.602Z,11.70
2023-01-23T02:44:28.638Z,11.20
2023-01-23T02:48:59.110Z,10.30
2023-01-23T03:10:08.403Z,9.40
2023-01-23T03:14:36.007Z,9.80
2023-01-23T03:18:58.521Z,9.60
2023-01-23T03:40:21.584Z,9.70
2023-01-23T03:44:51.278Z,8.50
2023-01-23T03:49:20.294Z,9.00
2023-01-23T04:23:30.328Z,10.20
2023-01-23T04:27:59.228Z,10.30
2023-01-23T04:32:20.870Z,12.80
2023-01-23T04:40:36.328Z,10.50
2023-01-23T04:45:05.459Z,10.40
2023-01-23T05:08:24.861Z,11.10
2023-01-23T05:12:53.735Z,11.40
2023-01-23T05:17:03.109Z,11.90
2023-01-23T05:21:33.567Z,13.70
2023-01-23T05:38:11.730Z,14.20
2023-01-23T05:42:41.401Z,13.70
2023-01-23T05:47:26.163Z,14.30
2023-01-23T05:51:56.008Z,15.00
2023-01-23T06:17:42.807Z,11.80
2023-01-23T06:21:31.644Z,11.10
2023-01-23T06:29:11.700Z,10.20
2023-01-23T06:33:12.492Z,11.40
2023-01-23T06:37:41.840Z,11.50
2023-01-23T06:41:30.075Z,10.50
2023-01-23T06:45:54.637Z,10.90
2023-01-23T06:49:28.319Z,14.00
2023-01-23T06:53:07.723Z,13.00
2023-01-23T06:57:37.734Z,17.90
2023-01-23T07:01:55.257Z,18.80
2023-01-23T07:05:56.087Z,14.10
2023-01-23T07:14:21.012Z,14.20
2023-01-23T07:17:41.047Z,12.80
2023-01-23T07:20:39.140Z,12.30
2023-01-23T07:24:28.870Z,14.40
2023-01-23T07:28:26.957Z,13.00
2023-01-23T07:31:37.847Z,12.10
2023-01-23T07:35:28.143Z,13.10
2023-01-23T07:39:02.421Z,12.40
2023-01-23T07:42:28.039Z,12.90
2023-01-23T07:45:33.960Z,13.20
2023-01-23T07:49:11.303Z,15.00
2023-01-23T07:52:23.338Z,15.30
2023-01-23T07:55:53.998Z,15.50
2023-01-23T07:59:52.553Z,15.10
2023-01-23T08:03:32.635Z,14.40
2023-01-23T08:07:42.032Z,14.90
2023-01-23T08:11:39.342Z,15.70
2023-01-23T08:19:43.465Z,15.80
2023-01-23T08:27:20.760Z,14.20
2023-01-23T08:43:48.466Z,14.30
2023-01-23T08:46:49.264Z,12.60
2023-01-23T08:50:53.508Z,13.30
2023-01-23T08:54:58.765Z,13.30
2023-01-23T08:59:28.199Z,12.80
2023-01-23T09:03:37.704Z,13.60
2023-01-23T09:07:32.023Z,13.70
2023-01-23T09:10:57.636Z,14.80
2023-01-23T09:14:47.584Z,14.60
2023-01-23T09:18:33.751Z,13.60
2023-01-23T09:21:34.164Z,20.30
2023-01-23T09:25:11.937Z,16.80
2023-01-23T09:29:16.176Z,14.30
2023-01-23T09:32:54.723Z,12.00
2023-01-23T09:35:52.995Z,12.30
2023-01-23T09:39:05.266Z,12.30
2023-01-23T09:42:37.636Z,12.00
2023-01-23T09:46:26.975Z,11.10
2023-01-23T09:50:00.628Z,10.70
2023-01-23T09:54:03.790Z,12.00
2023-01-23T10:01:48.896Z,11.70
2023-01-23T10:05:17.390Z,11.60
2023-01-23T10:09:40.448Z,12.30
2023-01-23T10:13:59.113Z,11.50
2023-01-23T10:27:00.853Z,9.60
2023-01-23T10:31:07.044Z,11.00
2023-01-23T10:58:00.252Z,10.60
2023-01-23T11:02:14.495Z,9.90
2023-01-23T11:06:21.155Z,9.70
2023-01-23T11:10:48.510Z,9.20
2023-01-23T11:18:26.202Z,7.40
2023-01-23T11:23:06.111Z,7.30
2023-01-23T11:26:35.712Z,7.30
2023-01-23T11:30:37.133Z,7.80
2023-01-23T11:34:48.498Z,7.80
2023-01-23T11:38:53.013Z,8.70
2023-01-23T11:42:11.575Z,6.60
2023-01-23T11:46:50.936Z,7.60
2023-01-23T11:50:56.201Z,7.70
2023-01-23T11:55:23.014Z,6.90
2023-01-23T11:59:42.276Z,6.70
2023-01-23T12:04:05.533Z,7.40
2023-01-23T12:13:25.275Z,7.50
2023-01-23T12:40:02.954Z,7.30
2023-01-23T12:44:42.257Z,7.30
2023-01-23T12:48:58.637Z,7.40
2023-01-23T12:53:30.250Z,6.90
2023-01-23T12:58:08.988Z,8.60
2023-01-23T13:07:45.067Z,7.00
2023-01-23T13:12:21.307Z,6.50
2023-01-23T13:16:45.829Z,6.10
2023-01-23T13:21:31.631Z,7.00
2023-01-23T13:25:55.290Z,6.80
2023-01-23T13:30:24.017Z,9.20
2023-01-23T13:34:59.053Z,9.60
2023-01-23T14:46:55.292Z,9.50
2023-01-23T14:51:24.901Z,10.40
2023-01-23T14:56:02.321Z,8.90
2023-01-23T15:04:38.166Z,8.40
2023-01-23T15:09:07.673Z,8.80
2023-01-23T15:35:16.613Z,13.40
2023-01-23T15:39:48.792Z,8.60
2023-01-23T15:44:08.897Z,8.20
2023-01-23T16:06:34.056Z,8.30
2023-01-23T16:10:56.554Z,7.40
2023-01-23T16:15:25.929Z,8.70
2023-01-23T16:19:55.521Z,11.10
2023-01-23T17:06:59.214Z,8.80
2023-01-23T17:11:28.628Z,8.70
2023-01-23T17:16:18.580Z,8.80
2023-01-23T17:37:19.826Z,9.30
2023-01-23T17:41:55.111Z,8.70
2023-01-23T17:46:24.844Z,9.20
2023-01-23T17:50:57.793Z,13.00
2023-01-23T17:55:13.487Z,8.70
2023-01-23T18:21:34.356Z,8.10
2023-01-23T18:25:54.403Z,8.40
2023-01-23T18:43:58.165Z,9.30
2023-01-23T18:48:24.273Z,8.70
2023-01-23T18:52:58.234Z,8.50
2023-01-23T18:57:30.188Z,10.20
2023-01-23T19:02:15.109Z,10.20
2023-01-23T19:23:37.442Z,15.70
2023-01-23T19:28:05.527Z,17.30
2023-01-23T19:32:17.572Z,14.60
2023-01-23T19:41:38.556Z,12.70
2023-01-23T19:45:38.622Z,12.80
2023-01-23T19:50:08.012Z,14.30
2023-01-23T19:54:27.932Z,13.60
2023-01-23T20:17:09.336Z,11.90
2023-01-23T20:21:38.936Z,11.70
2023-01-23T20:26:08.435Z,14.70
2023-01-23T20:30:33.029Z,11.50
2023-01-23T21:00:43.193Z,9.70
2023-01-23T21:05:12.593Z,9.50
2023-01-23T21:09:41.809Z,8.20
2023-01-23T21:14:03.280Z,8.90
2023-01-23T21:18:31.517Z,9.60
2023-01-23T21:22:48.370Z,8.20
2023-01-23T21:44:34.597Z,10.60
2023-01-23T21:49:05.155Z,11.10
2023-01-23T21:53:34.390Z,10.60
2023-01-23T22:16:12.213Z,10.40
2023-01-23T22:20:24.605Z,9.80
2023-01-23T22:24:54.794Z,11.10
2023-01-23T22:41:53.401Z,11.60
2023-01-23T22:46:13.998Z,11.90
2023-01-23T22:50:44.618Z,15.40
2023-01-23T22:55:12.964Z,15.00
2023-01-23T22:59:18.462Z,13.00
2023-01-23T23:07:34.200Z,13.10
2023-01-23T23:11:28.062Z,13.20
2023-01-23T23:15:57.597Z,15.00
2023-01-23T23:20:26.551Z,14.30
2023-01-23T23:24:37.203Z,13.50
2023-01-23T23:46:11.425Z,12.00
2023-01-23T23:50:30.879Z,12.50
2023-01-23T23:55:00.720Z,11.40
